Time;durP1;ratioP1;P1;durP2;ratioP2;P2;SDS_P1;SDS_P2;PMS_P1;PMS_P2;Temp;Humidity;BMP_temperature;BMP_pressure;BME280_temperature;BME280_humidity;BME280_pressure;Samples;Min_cycle;Max_cycle;Signal;HPM_P1;HPM_P2
2022/05/24 00:00:30;;;;;;;11.73;10.47;;;;;;;15.19;86.47;98801.91;5096191;28;20466;-62
2022/05/24 00:02:59;;;;;;;12.90;10.30;;;;;;;15.25;85.88;98803.78;5095353;28;21022;-62
2022/05/24 00:05:27;;;;;;;9.87;8.87;;;;;;;15.09;86.34;98790.75;5095697;28;20476;-62
2022/05/24 00:07:54;;;;;;;11.63;9.83;;;;;;;15.03;87.12;98801.28;5086122;28;20472;-62
2022/05/24 00:10:23;;;;;;;11.23;10.13;;;;;;;15.00;86.03;98808.94;5095488;28;20483;-62
2022/05/24 00:12:50;;;;;;;10.40;9.40;;;;;;;14.94;85.54;98813.25;5101818;28;20485;-62
2022/05/24 00:15:23;;;;;;;9.73;8.70;;;;;;;15.06;84.97;98813.50;5090768;28;20462;-62
2022/05/24 00:17:52;;;;;;;10.20;9.07;;;;;;;14.78;85.83;98827.09;5102611;28;20511;-61
2022/05/24 00:20:22;;;;;;;10.77;8.63;;;;;;;14.91;85.71;98835.19;5085298;28;20481;-62
2022/05/24 00:22:49;;;;;;;10.67;9.67;;;;;;;14.88;86.05;98831.06;5102151;28;20522;-62
2022/05/24 00:25:16;;;;;;;11.90;10.60;;;;;;;14.84;85.89;98823.59;5113744;28;20495;-61
2022/05/24 00:27:42;;;;;;;11.53;10.53;;;;;;;14.96;85.58;98838.09;5102181;28;20439;-62
2022/05/24 00:30:10;;;;;;;15.43;10.40;;;;;;;14.95;86.20;98841.03;5100029;28;20479;-62
2022/05/24 00:32:37;;;;;;;12.30;10.83;;;;;;;14.96;86.08;98842.66;5101753;28;20442;-61
2022/05/24 00:35:04;;;;;;;11.97;10.77;;;;;;;14.90;85.83;98840.81;5101309;28;20453;-61
2022/05/24 00:37:33;;;;;;;14.60;10.87;;;;;;;14.87;86.50;98836.66;5101304;28;20463;-62
2022/05/24 00:40:00;;;;;;;11.77;10.57;;;;;;;14.89;86.40;98845.34;5101700;28;20786;-62
2022/05/24 00:42:29;;;;;;;12.83;11.50;;;;;;;14.85;85.88;98842.22;5100799;28;20493;-61
2022/05/24 00:45:01;;;;;;;13.00;11.20;;;;;;;14.78;85.60;98844.06;5121928;28;20480;-61
2022/05/24 00:47:32;;;;;;;12.83;11.27;;;;;;;14.88;85.43;98862.53;5108478;28;20484;-61
2022/05/24 00:50:03;;;;;;;13.70;12.30;;;;;;;14.79;84.79;98856.50;5106342;28;20468;-61
2022/05/24 00:52:36;;;;;;;12.57;11.27;;;;;;;14.87;85.04;98861.69;5097812;28;20479;-61
2022/05/24 00:55:03;;;;;;;12.23;11.10;;;;;;;14.75;85.40;98865.16;5112581;28;20451;-61
2022/05/24 00:57:32;;;;;;;13.43;12.10;;;;;;;14.56;85.62;98851.41;5101991;28;20483;-61
2022/05/24 01:00:04;;;;;;;15.57;13.90;;;;;;;14.48;85.24;98849.72;5116825;28;20460;-61
2022/05/24 01:02:32;;;;;;;16.23;14.07;;;;;;;14.56;85.19;98846.03;5121575;28;20462;-61
2022/05/24 01:04:58;;;;;;;14.37;13.07;;;;;;;14.59;85.27;98855.59;5105488;28;20443;-62
2022/05/24 01:07:25;;;;;;;17.27;13.83;;;;;;;14.50;85.33;98854.91;5100820;28;20497;-62
2022/05/24 01:09:58;;;;;;;18.33;14.23;;;;;;;14.53;84.98;98851.84;5102054;28;20470;-60
2022/05/24 01:12:29;;;;;;;16.37;14.60;;;;;;;14.54;85.10;98853.47;5113759;28;20481;-60
2022/05/24 01:14:58;;;;;;;17.80;14.90;;;;;;;14.53;85.34;98853.66;5112207;28;20475;-60
2022/05/24 01:17:25;;;;;;;16.87;15.10;;;;;;;14.55;85.77;98852.44;5118367;28;20486;-61
2022/05/24 01:19:52;;;;;;;18.47;15.40;;;;;;;14.66;84.92;98854.59;5119119;28;20896;-61
2022/05/24 01:22:34;;;;;;;18.67;16.77;;;;;;;14.71;85.11;98864.75;5101049;28;20471;-61
2022/05/24 01:25:04;;;;;;;16.93;15.17;;;;;;;14.60;85.56;98860.78;5105610;28;20442;-61
2022/05/24 01:27:32;;;;;;;17.83;15.77;;;;;;;14.61;85.93;98853.53;5113634;28;20562;-61
2022/05/24 01:29:59;;;;;;;20.90;15.77;;;;;;;14.59;84.44;98848.34;5116886;28;20489;-61
2022/05/24 01:38:02;;;;;;;16.67;14.67;;;;;;;14.45;83.99;98839.38;5109100;28;20430;-61
2022/05/24 01:40:29;;;;;;;15.50;13.90;;;;;;;14.50;84.41;98854.91;5117365;28;20457;-62
2022/05/24 01:42:57;;;;;;;17.57;15.40;;;;;;;14.60;84.78;98865.31;5109767;28;20539;-61
2022/05/24 01:45:28;;;;;;;19.10;16.17;;;;;;;14.69;84.23;98864.94;5105121;28;20514;-61
2022/05/24 01:47:59;;;;;;;16.50;14.70;;;;;;;14.74;83.96;98860.81;5119777;28;20482;-61
2022/05/24 01:50:27;;;;;;;18.37;16.53;;;;;;;14.62;85.00;98861.41;5105404;28;20542;-61
2022/05/24 01:52:56;;;;;;;18.93;16.47;;;;;;;14.67;84.63;98863.50;5106773;28;20446;-61
2022/05/24 01:55:27;;;;;;;18.07;16.23;;;;;;;14.56;85.06;98859.47;5113258;28;20495;-61
2022/05/24 01:57:57;;;;;;;22.23;17.70;;;;;;;14.53;85.24;98872.50;5117063;28;20474;-61
2022/05/24 02:00:24;;;;;;;18.00;16.20;;;;;;;14.57;85.48;98865.69;5121570;28;20449;-61
2022/05/24 02:02:51;;;;;;;19.37;16.50;;;;;;;14.45;86.32;98871.63;5105137;28;20470;-61
2022/05/24 02:05:29;;;;;;;21.23;17.30;;;;;;;14.45;86.25;98871.63;5121119;28;20470;-61
2022/05/24 02:07:56;;;;;;;19.63;17.10;;;;;;;14.49;86.10;98872.91;5111773;28;20961;-61
2022/05/24 02:10:23;;;;;;;21.50;16.93;;;;;;;14.50;85.88;98860.28;5104284;28;20524;-61
2022/05/24 02:12:52;;;;;;;21.30;19.00;;;;;;;14.50;85.79;98858.41;5105539;28;20455;-61
2022/05/24 02:15:23;;;;;;;21.03;18.63;;;;;;;14.51;85.85;98875.38;5120059;28;20477;-61
2022/05/24 02:17:54;;;;;;;23.00;20.10;;;;;;;14.34;85.82;98882.97;5104786;28;20435;-61
2022/05/24 02:20:24;;;;;;;22.00;19.40;;;;;;;14.46;86.04;98892.13;5121226;28;20441;-60
2022/05/24 02:22:51;;;;;;;23.17;19.80;;;;;;;14.55;86.02;98890.09;5118988;28;20455;-61
2022/05/24 02:25:21;;;;;;;24.43;20.90;;;;;;;14.58;86.08;98888.88;5113172;28;20465;-61
2022/05/24 02:27:48;;;;;;;29.03;21.83;;;;;;;14.75;85.26;98878.63;5111424;28;20443;-62
2022/05/24 02:30:18;;;;;;;24.50;21.60;;;;;;;14.58;86.14;98884.38;5120942;28;20506;-61
2022/05/24 02:32:46;;;;;;;25.40;20.87;;;;;;;14.74;85.03;98879.63;5112225;28;20458;-62
2022/05/24 02:35:14;;;;;;;26.53;22.53;;;;;;;14.64;85.00;98875.47;5104674;28;20454;-62
2022/05/24 02:37:41;;;;;;;23.83;21.33;;;;;;;14.72;85.09;98879.03;5104727;28;20443;-61
2022/05/24 02:42:53;;;;;;;23.83;21.33;;;;;;;14.69;85.13;98872.19;5103779;28;20512;-61
2022/05/24 02:45:20;;;;;;;23.80;21.20;;;;;;;14.89;84.28;98872.25;5101700;28;20451;-62
2022/05/24 02:47:50;;;;;;;23.00;20.50;;;;;;;14.95;84.14;98879.53;5102509;28;20484;-61
2022/05/24 02:50:17;;;;;;;29.63;23.03;;;;;;;14.88;84.74;98879.50;5100201;28;20504;-61
2022/05/24 02:52:44;;;;;;;27.37;23.40;;;;;;;14.84;84.30;98886.31;5103454;28;20459;-61
2022/05/24 02:55:12;;;;;;;25.80;22.20;;;;;;;14.79;84.95;98888.78;5096043;28;20548;-62
2022/05/24 02:57:39;;;;;;;28.67;23.57;;;;;;;14.88;85.05;98887.56;5104279;28;20431;-62
2022/05/24 03:00:10;;;;;;;26.67;23.60;;;;;;;14.82;84.98;98892.94;5101122;28;20500;-60
2022/05/24 03:02:37;;;;;;;30.27;23.83;;;;;;;14.94;84.77;98890.50;5096673;28;20461;-61
2022/05/24 03:05:07;;;;;;;26.03;23.33;;;;;;;14.80;85.06;98893.13;5101944;28;20474;-60
2022/05/24 03:10:18;;;;;;;28.37;24.23;;;;;;;14.83;84.45;98881.16;5102720;28;20497;-61
2022/05/24 03:15:42;;;;;;;30.80;27.47;;;;;;;14.92;84.18;98885.31;5020396;28;20478;-61
2022/05/24 03:18:09;;;;;;;31.70;27.40;;;;;;;15.22;83.21;98883.13;5079835;28;20439;-61
2022/05/24 03:20:37;;;;;;;30.40;24.57;;;;;;;15.12;84.12;98887.22;5103073;28;20467;-61
2022/05/24 03:23:04;;;;;;;36.60;30.30;;;;;;;15.17;83.32;98884.75;5102739;28;20833;-61
2022/05/24 03:25:31;;;;;;;34.47;29.63;;;;;;;15.02;84.00;98885.75;5102089;28;20638;-61
2022/05/24 03:27:58;;;;;;;33.77;30.10;;;;;;;14.94;84.39;98887.78;5081945;28;21027;-61
2022/05/24 03:30:25;;;;;;;36.37;31.60;;;;;;;14.92;84.66;98877.22;5085726;28;20502;-61
2022/05/24 03:32:52;;;;;;;36.30;31.50;;;;;;;15.24;83.76;98890.97;5100875;28;20447;-61
2022/05/24 03:35:19;;;;;;;36.73;30.80;;;;;;;15.11;84.38;98882.88;5102447;28;20455;-62
2022/05/24 03:37:47;;;;;;;42.00;33.17;;;;;;;14.99;84.96;98885.31;5101502;28;20443;-62
2022/05/24 03:40:14;;;;;;;37.53;33.27;;;;;;;15.16;84.16;98873.16;5102121;28;20500;-62
2022/05/24 03:42:41;;;;;;;43.43;34.80;;;;;;;14.95;85.29;98867.94;5115899;28;20478;-62
2022/05/24 03:45:10;;;;;;;39.00;33.27;;;;;;;14.90;84.91;98857.78;5094672;28;20475;-61
2022/05/24 03:47:37;;;;;;;40.57;34.37;;;;;;;14.85;85.59;98871.00;5113428;28;20436;-62
2022/05/24 03:50:05;;;;;;;40.77;33.80;;;;;;;14.96;85.42;98875.78;5103472;28;21075;-61
2022/05/24 03:52:31;;;;;;;41.40;34.30;;;;;;;14.99;85.76;98878.06;5114082;28;20462;-62
2022/05/24 03:54:59;;;;;;;40.30;34.77;;;;;;;15.14;85.08;98863.63;5121347;28;20454;-62
2022/05/24 04:00:13;;;;;;;39.90;33.47;;;;;;;15.02;85.95;98866.09;5102937;28;20473;-62
2022/05/24 04:02:40;;;;;;;38.67;33.67;;;;;;;14.90;85.69;98854.25;5100528;28;20481;-62
2022/05/24 04:05:08;;;;;;;41.00;34.80;;;;;;;15.03;85.53;98854.28;5091342;28;20463;-62
2022/05/24 04:07:36;;;;;;;38.60;32.40;;;;;;;15.12;84.99;98858.44;5101885;28;20443;-62
2022/05/24 04:10:06;;;;;;;35.73;31.83;;;;;;;15.03;85.03;98863.19;5117262;28;20462;-61
2022/05/24 04:12:33;;;;;;;38.77;30.77;;;;;;;15.06;85.60;98870.03;5116766;28;20809;-62
2022/05/24 04:15:00;;;;;;;35.77;29.97;;;;;;;15.05;85.37;98855.75;5101339;28;20907;-62
2022/05/24 04:17:27;;;;;;;36.87;31.00;;;;;;;15.06;85.60;98856.56;5107137;28;20487;-62
2022/05/24 04:19:54;;;;;;;34.00;28.10;;;;;;;15.04;84.86;98855.94;5100662;28;20832;-62
2022/05/24 04:22:21;;;;;;;35.30;29.47;;;;;;;15.04;85.56;98861.31;5115268;28;20538;-62
2022/05/24 04:24:47;;;;;;;33.83;27.90;;;;;;;15.11;85.08;98859.47;5118300;28;20447;-62
2022/05/24 04:27:16;;;;;;;29.77;26.23;;;;;;;15.20;85.10;98869.00;5095098;28;20483;-62
2022/05/24 04:29:43;;;;;;;33.50;27.57;;;;;;;15.13;85.29;98861.97;5095742;28;20447;-62
2022/05/24 04:32:10;;;;;;;29.63;26.13;;;;;;;15.09;85.67;98880.38;5101094;28;20487;-62
2022/05/24 04:34:37;;;;;;;33.90;28.33;;;;;;;15.04;85.26;98886.38;5087754;28;20456;-62
2022/05/24 04:37:06;;;;;;;29.87;26.37;;;;;;;15.01;85.94;98894.03;5087091;28;20474;-61
2022/05/24 04:39:33;;;;;;;35.33;26.90;;;;;;;14.87;86.02;98888.59;5099625;28;20458;-61
2022/05/24 04:44:46;;;;;;;33.70;26.83;;;;;;;15.24;84.97;98883.75;5089706;28;21038;-61
2022/05/24 04:47:13;;;;;;;31.63;24.50;;;;;;;15.19;85.09;98896.13;5082800;28;20479;-61
2022/05/24 04:49:41;;;;;;;32.83;25.40;;;;;;;15.05;85.64;98888.03;5101564;28;20447;-61
2022/05/24 04:52:09;;;;;;;32.13;25.90;;;;;;;15.15;85.21;98886.81;5100950;28;20487;-61
2022/05/24 04:54:38;;;;;;;28.33;25.03;;;;;;;15.22;84.60;98884.97;5100178;28;20451;-61
2022/05/24 04:57:06;;;;;;;27.30;23.90;;;;;;;15.21;84.15;98878.75;5090938;28;20580;-61
2022/05/24 04:59:32;;;;;;;28.53;24.93;;;;;;;15.42;83.04;98885.81;5091020;28;20436;-61
2022/05/24 05:02:01;;;;;;;27.73;23.50;;;;;;;15.38;82.86;98886.44;5093988;28;20477;-61
2022/05/24 05:04:28;;;;;;;24.63;21.67;;;;;;;15.51;82.28;98891.03;5093754;28;20436;-61
2022/05/24 05:06:55;;;;;;;26.73;23.40;;;;;;;15.36;82.91;98896.59;5092002;28;20501;-62
2022/05/24 05:09:22;;;;;;;28.93;23.40;;;;;;;15.38;83.34;98903.44;5101281;28;20435;-62
2022/05/24 05:11:48;;;;;;;27.60;24.00;;;;;;;15.49;82.87;98895.78;5099346;28;20534;-62
2022/05/24 05:14:15;;;;;;;28.90;24.67;;;;;;;15.31;83.96;98899.06;5093945;28;20489;-61
2022/05/24 05:16:43;;;;;;;26.83;23.97;;;;;;;15.60;82.57;98908.63;5096544;28;20971;-62
2022/05/24 05:19:13;;;;;;;25.43;22.07;;;;;;;15.49;82.41;98901.19;5100030;28;20566;-62
2022/05/24 05:21:41;;;;;;;25.93;22.30;;;;;;;15.62;82.36;98906.56;5081204;28;20550;-63
2022/05/24 05:24:09;;;;;;;25.00;22.30;;;;;;;15.64;81.70;98909.91;5092344;28;20465;-62
2022/05/24 05:26:36;;;;;;;25.30;20.93;;;;;;;15.63;81.48;98908.22;5087968;28;20467;-64
2022/05/24 05:29:03;;;;;;;27.40;21.47;;;;;;;15.87;81.24;98917.59;5086163;28;20436;-63
2022/05/24 05:31:29;;;;;;;24.57;21.03;;;;;;;15.97;80.66;98922.53;5079965;28;20533;-62
2022/05/24 05:33:57;;;;;;;23.90;21.20;;;;;;;16.05;79.48;98921.53;5081331;28;20444;-62
2022/05/24 05:36:27;;;;;;;23.83;21.37;;;;;;;15.88;79.21;98937.28;5080218;28;20510;-63
2022/05/24 05:38:54;;;;;;;23.50;21.10;;;;;;;15.69;80.34;98933.50;5081037;28;20440;-63
2022/05/24 05:41:22;;;;;;;25.13;22.53;;;;;;;15.55;81.85;98946.13;5083152;28;20510;-62
2022/05/24 05:43:49;;;;;;;26.13;22.90;;;;;;;15.68;80.92;98924.59;5102648;28;20456;-63
2022/05/24 05:46:16;;;;;;;25.07;21.50;;;;;;;15.96;80.62;98935.19;5120200;28;20896;-63
2022/05/24 05:48:44;;;;;;;25.20;21.87;;;;;;;15.91;80.41;98931.47;5122144;28;20973;-63
2022/05/24 05:51:13;;;;;;;24.20;21.53;;;;;;;15.92;80.75;98931.28;5121120;28;20474;-62
2022/05/24 05:53:41;;;;;;;23.60;20.87;;;;;;;15.93;80.72;98935.59;5121596;28;20799;-62
2022/05/24 05:56:09;;;;;;;23.20;20.70;;;;;;;15.89;80.01;98928.97;5100444;28;20475;-62
2022/05/24 05:58:36;;;;;;;26.10;21.07;;;;;;;15.96;79.03;98935.19;5101554;28;20515;-63
2022/05/24 06:01:03;;;;;;;21.27;18.97;;;;;;;16.24;78.24;98939.53;5100246;28;20470;-62
2022/05/24 06:03:30;;;;;;;22.70;20.33;;;;;;;15.97;78.63;98938.72;5120790;28;20458;-64
2022/05/24 06:06:00;;;;;;;21.73;19.53;;;;;;;16.03;78.66;98943.28;5121225;28;20482;-63
2022/05/24 06:08:26;;;;;;;22.13;19.70;;;;;;;16.26;78.65;98947.41;5121302;28;20438;-63
2022/05/24 06:10:55;;;;;;;23.03;20.63;;;;;;;16.32;77.75;98946.59;5114903;28;21073;-63
2022/05/24 06:13:22;;;;;;;22.17;19.77;;;;;;;16.19;77.50;98953.63;5124616;28;20471;-63
2022/05/24 06:15:50;;;;;;;20.83;18.83;;;;;;;15.93;77.75;98967.13;5123167;27;20493;-63
2022/05/24 06:18:16;;;;;;;22.83;20.40;;;;;;;15.89;78.28;98973.97;5124829;28;20441;-62
2022/05/24 06:20:43;;;;;;;23.80;21.13;;;;;;;15.82;78.68;98969.41;5123104;28;20537;-62
2022/05/24 06:23:10;;;;;;;21.90;19.60;;;;;;;15.93;78.56;98972.53;5121548;28;20488;-62
2022/05/24 06:25:39;;;;;;;24.10;19.77;;;;;;;16.00;78.45;98974.19;5123132;28;20516;-62
2022/05/24 06:28:09;;;;;;;24.63;19.83;;;;;;;15.87;78.57;98973.38;5125053;27;20460;-62
2022/05/24 06:30:35;;;;;;;19.80;17.80;;;;;;;15.69;80.27;98974.75;5121248;28;21039;-63
2022/05/24 06:33:02;;;;;;;22.33;20.03;;;;;;;15.69;80.30;98995.47;5123910;28;20460;-63
2022/05/24 06:35:29;;;;;;;21.90;19.27;;;;;;;15.57;81.43;99009.56;5124768;27;20514;-62
2022/05/24 06:37:56;;;;;;;23.13;20.83;;;;;;;15.54;81.47;99011.81;5132603;27;20456;-62
2022/05/24 06:40:23;;;;;;;22.37;20.13;;;;;;;15.23;81.65;99026.63;5130430;27;21151;-62
2022/05/24 06:42:50;;;;;;;24.90;22.20;;;;;;;15.13;83.15;99023.47;5130934;27;20477;-62
2022/05/24 06:45:18;;;;;;;24.50;22.00;;;;;;;15.20;83.68;99033.25;5132609;27;20456;-61
2022/05/24 06:47:45;;;;;;;24.73;21.97;;;;;;;15.04;84.47;99034.41;5144304;27;20605;-62
2022/05/24 06:50:13;;;;;;;26.97;21.00;;;;;;;14.93;84.35;99047.59;5135637;27;20468;-62
2022/05/24 06:52:40;;;;;;;24.67;22.20;;;;;;;14.77;85.78;99052.28;5124040;28;21063;-62
2022/05/24 06:55:07;;;;;;;28.83;24.00;;;;;;;14.71;86.12;99068.38;5123464;28;20518;-62
2022/05/24 06:57:35;;;;;;;28.27;25.20;;;;;;;14.56;86.83;99069.25;5124730;28;20509;-62
2022/05/24 07:02:50;;;;;;;23.60;21.20;;;;;;;14.04;88.16;99067.78;5108220;28;20484;-62
2022/05/24 07:05:21;;;;;;;18.93;17.03;;;;;;;13.83;88.13;99076.66;5103531;28;20447;-62
2022/05/24 07:07:48;;;;;;;17.90;16.10;;;;;;;13.86;88.28;99097.78;5108788;28;20555;-61
2022/05/24 07:10:16;;;;;;;18.47;16.67;;;;;;;13.68;89.16;99107.09;5124122;28;20460;-62
2022/05/24 07:12:45;;;;;;;21.73;19.03;;;;;;;13.65;88.68;99106.66;5121079;28;20565;-62
2022/05/24 07:15:14;;;;;;;20.73;16.30;;;;;;;13.39;87.59;99107.97;5122749;28;20442;-62
2022/05/24 07:17:40;;;;;;;18.30;16.40;;;;;;;13.30;88.23;99114.44;5124441;28;20500;-61
2022/05/24 07:20:10;;;;;;;18.13;15.50;;;;;;;13.29;88.17;99126.19;5109386;28;20473;-61
2022/05/24 07:22:37;;;;;;;16.13;14.43;;;;;;;13.15;88.85;99133.22;5102851;28;20473;-62
2022/05/24 07:25:06;;;;;;;22.83;15.47;;;;;;;13.09;89.71;99142.00;5103385;28;20483;-62
2022/05/24 07:27:33;;;;;;;17.03;14.30;;;;;;;12.97;89.40;99145.16;5102779;28;20492;-62
2022/05/24 07:30:00;;;;;;;19.50;13.13;;;;;;;12.86;89.81;99150.94;5103685;28;20477;-62
2022/05/24 07:32:27;;;;;;;16.27;11.80;;;;;;;12.95;89.85;99165.97;5128616;27;20481;-62
2022/05/24 07:34:54;;;;;;;15.37;12.30;;;;;;;12.86;89.73;99155.50;5125303;27;20426;-62
2022/05/24 07:37:23;;;;;;;17.43;12.27;;;;;;;12.87;90.13;99149.13;5142990;27;20469;-61
2022/05/24 07:45:47;;;;;;;12.70;11.37;;;;;;;12.95;89.72;99155.25;5131099;27;20454;-61
2022/05/24 07:45:50;;;;;;;14.37;9.50;;;;;;;13.00;88.67;99157.34;5037864;28;20481;-61
2022/05/24 07:48:18;;;;;;;18.53;9.83;;;;;;;13.06;88.91;99174.59;5113252;28;20446;-61
2022/05/24 07:50:48;;;;;;;16.83;10.90;;;;;;;13.08;88.69;99173.38;5122993;28;20482;-62
2022/05/24 07:53:16;;;;;;;17.27;9.87;;;;;;;13.07;88.79;99169.03;5123138;28;20438;-62
2022/05/24 07:55:44;;;;;;;12.83;9.40;;;;;;;13.16;88.11;99170.63;5122733;28;20493;-62
2022/05/24 07:58:11;;;;;;;11.00;9.27;;;;;;;13.51;87.41;99172.78;5123019;28;20529;-62
2022/05/24 08:00:39;;;;;;;12.60;9.57;;;;;;;13.48;86.89;99175.84;5122392;28;20469;-62
2022/05/24 08:03:07;;;;;;;10.53;8.57;;;;;;;13.35;87.09;99182.69;5123397;28;20472;-61
2022/05/24 08:05:35;;;;;;;10.53;9.17;;;;;;;13.67;87.38;99171.75;5122341;28;20470;-62
2022/05/24 08:08:02;;;;;;;10.97;9.63;;;;;;;13.76;86.91;99165.25;5105268;28;20546;-62
2022/05/24 08:10:31;;;;;;;8.87;7.90;;;;;;;13.64;86.67;99172.13;5101911;28;20479;-62
2022/05/24 08:12:57;;;;;;;13.23;9.13;;;;;;;13.94;85.81;99159.47;5102118;28;20487;-62
2022/05/24 08:15:25;;;;;;;11.10;9.63;;;;;;;13.72;85.19;99147.84;5100270;28;20455;-61
2022/05/24 08:17:53;;;;;;;16.80;11.57;;;;;;;13.62;86.22;99148.13;5118502;28;20453;-61
2022/05/24 08:20:20;;;;;;;13.97;11.57;;;;;;;13.77;85.43;99149.97;5121743;28;20448;-62
2022/05/24 08:22:47;;;;;;;12.53;11.20;;;;;;;13.83;86.29;99158.09;5121962;28;20438;-62
2022/05/24 08:25:15;;;;;;;14.70;11.80;;;;;;;13.83;85.47;99168.84;5121794;28;20446;-62
2022/05/24 08:27:44;;;;;;;15.77;12.30;;;;;;;14.04;84.17;99172.59;5107362;28;20488;-62
2022/05/24 08:30:13;;;;;;;16.07;14.00;;;;;;;13.80;85.51;99188.03;5100757;28;20451;-62
2022/05/24 08:32:40;;;;;;;16.00;14.30;;;;;;;13.89;86.13;99196.84;5101539;28;20548;-62
2022/05/24 08:35:10;;;;;;;16.50;14.80;;;;;;;14.12;85.24;99210.13;5100926;28;20447;-62
2022/05/24 08:37:37;;;;;;;14.73;13.23;;;;;;;14.07;84.78;99204.47;5114763;28;20442;-62
2022/05/24 08:40:05;;;;;;;15.70;12.27;;;;;;;14.30;83.32;99190.88;5122490;28;20470;-61
2022/05/24 08:42:41;;;;;;;15.30;13.00;;;;;;;14.19;83.68;99192.19;5121862;28;20462;-62
2022/05/24 08:50:46;;;;;;;13.43;11.00;;;;;;;14.92;80.34;99194.78;5102066;28;20846;-62
2022/05/24 08:53:16;;;;;;;12.90;11.17;;;;;;;16.19;76.35;99196.31;5102002;28;20488;-61
2022/05/24 08:55:44;;;;;;;14.03;11.13;;;;;;;16.96;72.30;99179.88;5101752;28;20491;-62
2022/05/24 08:58:18;;;;;;;10.63;9.50;;;;;;;17.09;71.11;99179.03;5101735;28;20585;-62
2022/05/24 09:00:46;;;;;;;10.40;8.90;;;;;;;16.62;74.26;99186.25;5100833;28;20706;-60
2022/05/24 09:03:13;;;;;;;8.63;7.73;;;;;;;15.87;73.49;99200.59;5102050;28;20842;-60
2022/05/24 09:05:42;;;;;;;10.23;7.83;;;;;;;16.08;74.46;99209.59;5119030;28;20465;-61
2022/05/24 09:08:19;;;;;;;8.57;7.77;;;;;;;16.58;74.87;99212.84;5122508;28;20422;-60
2022/05/24 09:10:48;;;;;;;9.53;8.70;;;;;;;16.43;75.16;99218.41;5121931;28;20466;-61
2022/05/24 09:13:54;;;;;;;9.80;8.80;;;;;;;15.84;75.23;99214.47;5122147;28;20513;-60
2022/05/24 09:16:34;;;;;;;9.83;8.83;;;;;;;16.00;74.12;99206.03;5059155;28;20519;-62
2022/05/24 09:19:04;;;;;;;8.60;7.67;;;;;;;15.82;72.58;99205.75;5101610;28;20427;-62
2022/05/24 09:21:33;;;;;;;13.03;8.23;;;;;;;15.25;75.30;99192.34;5100186;28;20493;-61
2022/05/24 09:24:04;;;;;;;10.37;8.30;;;;;;;15.58;76.30;99205.16;5101620;28;20483;-62
2022/05/24 09:26:34;;;;;;;9.17;8.23;;;;;;;16.49;74.38;99203.25;5100206;28;20471;-62
2022/05/24 09:29:10;;;;;;;9.13;8.20;;;;;;;17.16;69.37;99206.84;5100984;28;20434;-62
2022/05/24 09:31:40;;;;;;;8.07;7.30;;;;;;;17.45;70.59;99220.97;5100045;28;20610;-62
2022/05/24 09:34:09;;;;;;;9.40;6.60;;;;;;;16.48;69.59;99233.97;5120008;28;20480;-62
2022/05/24 09:36:39;;;;;;;6.93;6.23;;;;;;;16.54;71.47;99231.31;5120675;28;20470;-62
2022/05/24 09:39:21;;;;;;;9.47;6.40;;;;;;;17.56;64.92;99236.50;5121350;28;20454;-62
2022/05/24 09:41:54;;;;;;;10.33;5.90;;;;;;;18.21;66.32;99249.22;5119827;28;20489;-62
2022/05/24 09:44:21;;;;;;;5.40;4.37;;;;;;;18.88;56.31;99241.56;5100934;28;20447;-62
2022/05/24 09:46:49;;;;;;;4.93;4.30;;;;;;;18.26;62.11;99230.47;5101834;28;20474;-62
2022/05/24 09:49:23;;;;;;;6.77;4.30;;;;;;;19.86;58.42;99245.50;5105162;28;20419;-62
2022/05/24 09:51:51;;;;;;;6.63;3.73;;;;;;;19.75;58.77;99246.25;5104882;28;20572;-62
2022/05/24 09:54:21;;;;;;;9.30;4.17;;;;;;;18.80;61.88;99261.59;5122534;28;20445;-62
2022/05/24 09:57:02;;;;;;;4.43;3.27;;;;;;;18.77;60.69;99262.03;5121398;27;20469;-62
2022/05/24 09:59:29;;;;;;;3.90;2.97;;;;;;;18.84;59.71;99264.75;5121080;28;20433;-62
2022/05/24 10:01:57;;;;;;;4.43;3.23;;;;;;;18.86;60.72;99273.47;5115391;28;20766;-62
2022/05/24 10:04:26;;;;;;;5.13;2.90;;;;;;;18.24;60.07;99270.44;5110707;28;20831;-62
2022/05/24 10:06:59;;;;;;;6.20;3.30;;;;;;;18.05;61.04;99278.44;5110857;28;20553;-62
2022/05/24 10:09:40;;;;;;;3.50;2.80;;;;;;;19.06;59.32;99286.03;5113079;28;20430;-62
2022/05/24 10:12:11;;;;;;;2.83;2.33;;;;;;;17.88;60.19;99291.59;5115719;28;20475;-62
2022/05/24 10:14:43;;;;;;;5.07;3.17;;;;;;;18.78;58.82;99293.50;5104582;28;20415;-62
2022/05/24 10:17:16;;;;;;;5.60;2.60;;;;;;;20.05;55.64;99299.75;5104056;28;20482;-62
2022/05/24 10:19:59;;;;;;;5.17;2.30;;;;;;;21.69;52.13;99293.25;5105129;28;20449;-62
2022/05/24 10:22:35;;;;;;;4.20;3.03;;;;;;;20.20;53.71;99294.78;5111653;28;20469;-62
2022/05/24 10:25:10;;;;;;;4.00;2.70;;;;;;;21.04;53.73;99296.84;5117073;28;20427;-62
2022/05/24 10:27:44;;;;;;;5.40;2.70;;;;;;;20.23;52.33;99290.78;5107136;28;20455;-62
2022/05/24 10:30:19;;;;;;;3.30;3.00;;;;;;;19.30;56.93;99301.47;5103861;28;20527;-62
2022/05/24 10:38:51;;;;;;;3.70;3.30;;;;;;;20.28;52.10;99304.50;5084286;28;20431;-62
2022/05/24 10:41:24;;;;;;;4.73;3.60;;;;;;;19.48;51.82;99299.91;5111608;28;20501;-62
2022/05/24 10:43:58;;;;;;;4.00;3.30;;;;;;;18.45;52.51;99304.47;5089025;28;20448;-62
2022/05/24 10:46:31;;;;;;;4.60;3.80;;;;;;;18.15;54.32;99301.50;5095922;28;20478;-62
2022/05/24 10:49:05;;;;;;;3.90;3.50;;;;;;;18.44;55.14;99298.25;5092295;28;20863;-62
2022/05/24 10:51:35;;;;;;;5.40;3.80;;;;;;;18.87;53.52;99304.94;5088129;28;20570;-62
2022/05/24 10:54:06;;;;;;;7.37;3.70;;;;;;;18.18;55.81;99307.31;5085530;28;20458;-62
2022/05/24 10:56:36;;;;;;;3.83;3.50;;;;;;;19.37;53.79;99294.16;5090004;28;20474;-62
2022/05/24 10:59:08;;;;;;;3.37;3.17;;;;;;;20.17;51.06;99307.97;5095943;28;20470;-62
2022/05/24 11:01:39;;;;;;;5.97;3.20;;;;;;;19.18;51.20;99306.81;5102346;28;20494;-62
2022/05/24 11:04:10;;;;;;;5.57;3.20;;;;;;;18.18;55.22;99310.00;5102497;28;20458;-62
2022/05/24 11:06:40;;;;;;;4.97;3.30;;;;;;;18.17;54.81;99305.63;5094041;28;20538;-62
2022/05/24 11:09:10;;;;;;;3.83;3.40;;;;;;;18.41;55.71;99312.19;5092167;28;20434;-62
2022/05/24 11:11:44;;;;;;;3.50;3.20;;;;;;;17.64;55.89;99303.88;5101845;28;20466;-61
2022/05/24 11:14:16;;;;;;;4.10;3.40;;;;;;;16.70;59.79;99304.78;5102693;28;20438;-62
2022/05/24 11:16:45;;;;;;;5.47;3.57;;;;;;;16.75;59.58;99318.50;5098384;28;20539;-62
2022/05/24 11:19:16;;;;;;;4.43;3.87;;;;;;;16.90;60.30;99311.09;5119767;28;20448;-62
2022/05/24 11:21:47;;;;;;;4.13;3.73;;;;;;;16.64;58.98;99322.63;5111954;28;20471;-61
2022/05/24 11:24:17;;;;;;;4.40;3.60;;;;;;;17.16;59.69;99316.75;5103475;28;20424;-61
2022/05/24 11:26:49;;;;;;;4.53;3.40;;;;;;;19.12;53.98;99317.69;5102370;28;20538;-62
2022/05/24 11:29:19;;;;;;;3.77;3.03;;;;;;;20.90;50.30;99322.53;5103194;28;20428;-62
2022/05/24 11:31:47;;;;;;;5.67;2.50;;;;;;;21.23;47.11;99332.88;5094248;28;20468;-62
2022/05/24 11:34:20;;;;;;;2.50;2.30;;;;;;;21.10;46.68;99320.34;5090620;28;20477;-62
2022/05/24 11:36:49;;;;;;;2.57;2.37;;;;;;;20.79;49.43;99318.72;5090458;28;20479;-62
2022/05/24 11:39:25;;;;;;;2.43;2.23;;;;;;;20.38;48.34;99328.38;5091047;28;20442;-62
2022/05/24 11:42:25;;;;;;;6.00;2.50;;;;;;;20.71;48.27;99314.44;5099943;28;20508;-62
2022/05/24 11:44:53;;;;;;;3.67;1.67;;;;;;;19.82;48.72;99319.41;5123028;28;20422;-62
2022/05/24 11:48:00;;;;;;;2.70;1.70;;;;;;;18.48;52.01;99324.88;5122484;28;20497;-61
2022/05/24 11:50:46;;;;;;;3.67;1.97;;;;;;;18.20;51.98;99320.63;5121758;28;20532;-61
2022/05/24 11:53:35;;;;;;;4.77;2.00;;;;;;;18.45;52.98;99334.25;5106850;28;20917;-60
2022/05/24 11:56:19;;;;;;;2.10;1.70;;;;;;;18.01;53.38;99335.88;5101640;28;20501;-61
2022/05/24 11:59:01;;;;;;;3.90;1.90;;;;;;;18.07;53.02;99337.69;5102364;28;20497;-61
2022/05/24 12:01:46;;;;;;;4.23;2.03;;;;;;;18.38;51.52;99344.28;5101004;28;20522;-61
2022/05/24 12:10:46;;;;;;;2.93;1.53;;;;;;;19.12;49.78;99358.31;5101360;28;20430;-62
2022/05/24 12:13:18;;;;;;;4.97;2.10;;;;;;;19.82;47.33;99360.09;5106641;28;20486;-61
2022/05/24 12:15:49;;;;;;;2.90;1.73;;;;;;;19.71;48.43;99369.75;5121083;28;20477;-61